Time;durP1;ratioP1;P1;durP2;ratioP2;P2;SDS_P1;SDS_P2;PMS_P1;PMS_P2;Temp;Humidity;BMP_temperature;BMP_pressure;BME280_temperature;BME280_humidity;BME280_pressure;Samples;Min_cycle;Max_cycle;Signal;HPM_P1;HPM_P2
2022/07/13 00:00:29;;;;;;;2.70;2.50;;;;;;;;;;2073255;28;20177;-55
2022/07/13 00:01:30;;;;;;;3.05;2.40;;;;;;;;;;2072618;28;20176;-58
2022/07/13 00:02:30;;;;;;;4.13;2.13;;;;;;;;;;2072283;28;20185;-56
2022/07/13 00:03:31;;;;;;;3.17;2.70;;;;;;;;;;2073172;28;20252;-57
2022/07/13 00:04:31;;;;;;;3.85;2.28;;;;;;;;;;2071852;28;20165;-58
2022/07/13 00:05:31;;;;;;;2.90;2.70;;;;;;;;;;2073155;28;20174;-58
2022/07/13 00:06:32;;;;;;;3.17;2.20;;;;;;;;;;2072525;28;20192;-53
2022/07/13 00:07:33;;;;;;;1.95;1.85;;;;;;;;;;2072067;28;20197;-55
2022/07/13 00:08:33;;;;;;;3.10;2.45;;;;;;;;;;2074271;28;20173;-55
2022/07/13 00:09:33;;;;;;;2.50;2.28;;;;;;;;;;2074563;28;20173;-50
2022/07/13 00:10:34;;;;;;;2.28;2.08;;;;;;;;;;2074697;28;20165;-55
2022/07/13 00:11:34;;;;;;;2.40;2.30;;;;;;;;;;2078649;28;20173;-57
2022/07/13 00:12:34;;;;;;;2.08;1.98;;;;;;;;;;2079855;28;20192;-57
2022/07/13 00:13:35;;;;;;;2.42;2.28;;;;;;;;;;2075477;28;20196;-57
2022/07/13 00:14:35;;;;;;;2.05;1.95;;;;;;;;;;2073499;28;20208;-55
2022/07/13 00:15:35;;;;;;;2.35;2.25;;;;;;;;;;2074385;28;20188;-57
2022/07/13 00:16:36;;;;;;;2.42;2.22;;;;;;;;;;2074659;28;20492;-55
2022/07/13 00:17:36;;;;;;;3.20;2.40;;;;;;;;;;2074309;28;20193;-57
2022/07/13 00:18:37;;;;;;;2.33;2.17;;;;;;;;;;2074517;28;20633;-58
2022/07/13 00:19:37;;;;;;;2.47;2.28;;;;;;;;;;2074385;28;20173;-56
2022/07/13 00:20:37;;;;;;;2.15;2.05;;;;;;;;;;2074475;28;20646;-57
2022/07/13 00:21:37;;;;;;;2.00;1.90;;;;;;;;;;2073972;28;20653;-56
2022/07/13 00:22:39;;;;;;;2.45;2.35;;;;;;;;;;2074472;28;20177;-56
2022/07/13 00:23:40;;;;;;;2.30;1.90;;;;;;;;;;2074488;28;20176;-58
2022/07/13 00:24:40;;;;;;;2.10;1.95;;;;;;;;;;2073774;28;20544;-56
2022/07/13 00:25:41;;;;;;;3.20;3.00;;;;;;;;;;2074328;28;20557;-55
2022/07/13 00:26:41;;;;;;;3.30;3.10;;;;;;;;;;2074287;28;20290;-56
2022/07/13 00:27:41;;;;;;;2.95;2.75;;;;;;;;;;2074380;28;20184;-57
2022/07/13 00:28:42;;;;;;;4.55;2.10;;;;;;;;;;2074005;28;20204;-58
2022/07/13 00:29:42;;;;;;;2.72;1.90;;;;;;;;;;2073847;28;20208;-56
2022/07/13 00:30:42;;;;;;;2.35;2.15;;;;;;;;;;2065880;28;20165;-56
2022/07/13 00:31:43;;;;;;;2.38;2.28;;;;;;;;;;2065589;28;20237;-58
2022/07/13 00:32:43;;;;;;;2.00;1.90;;;;;;;;;;2074524;28;20605;-57
2022/07/13 00:33:43;;;;;;;2.15;2.05;;;;;;;;;;2065422;28;20301;-59
2022/07/13 00:34:44;;;;;;;2.25;2.05;;;;;;;;;;2056378;28;20171;-56
2022/07/13 00:35:44;;;;;;;1.98;1.77;;;;;;;;;;2073663;28;20861;-55
2022/07/13 00:36:45;;;;;;;2.15;2.05;;;;;;;;;;2074639;28;20192;-57
2022/07/13 00:37:45;;;;;;;2.45;2.25;;;;;;;;;;2074244;28;20193;-58
2022/07/13 00:38:45;;;;;;;2.47;2.30;;;;;;;;;;2074464;28;20173;-57
2022/07/13 00:39:46;;;;;;;2.60;2.40;;;;;;;;;;2074129;28;20641;-57
2022/07/13 00:40:46;;;;;;;2.40;2.30;;;;;;;;;;2074227;28;20169;-56
2022/07/13 00:41:47;;;;;;;2.45;2.35;;;;;;;;;;2074222;28;20593;-55
2022/07/13 00:42:48;;;;;;;2.67;2.25;;;;;;;;;;2074081;28;20188;-59
2022/07/13 00:43:48;;;;;;;2.10;2.00;;;;;;;;;;2074269;28;20177;-58
2022/07/13 00:44:49;;;;;;;2.25;2.15;;;;;;;;;;2072617;28;20169;-57
2022/07/13 00:45:50;;;;;;;2.40;2.20;;;;;;;;;;2073614;28;20309;-55
2022/07/13 00:46:54;;;;;;;2.30;2.20;;;;;;;;;;2073724;28;20185;-56
2022/07/13 00:47:54;;;;;;;2.28;2.17;;;;;;;;;;2073689;28;20215;-58
2022/07/13 00:48:55;;;;;;;2.22;2.13;;;;;;;;;;2074433;28;20649;-56
2022/07/13 00:49:56;;;;;;;2.78;2.15;;;;;;;;;;2074859;28;20284;-55
2022/07/13 00:50:57;;;;;;;2.05;1.95;;;;;;;;;;2076430;28;20172;-54
2022/07/13 00:51:57;;;;;;;2.22;2.00;;;;;;;;;;2076402;28;20272;-58
2022/07/13 00:52:58;;;;;;;2.38;1.90;;;;;;;;;;2068872;28;20178;-52
2022/07/13 00:53:59;;;;;;;2.65;2.45;;;;;;;;;;2068559;28;20201;-57
2022/07/13 00:55:00;;;;;;;2.08;1.90;;;;;;;;;;2077828;28;20191;-58
2022/07/13 00:56:01;;;;;;;3.00;2.75;;;;;;;;;;2077823;28;20177;-56
2022/07/13 00:57:04;;;;;;;2.00;1.90;;;;;;;;;;2074465;28;20183;-54
2022/07/13 00:58:07;;;;;;;2.60;2.45;;;;;;;;;;2082032;23;20192;-53
2022/07/13 00:59:07;;;;;;;2.33;2.13;;;;;;;;;;2071225;28;20235;-56
2022/07/13 01:00:10;;;;;;;2.38;1.98;;;;;;;;;;2072621;28;20173;-53
2022/07/13 01:01:10;;;;;;;2.67;2.10;;;;;;;;;;2065265;28;20217;-55
2022/07/13 01:02:10;;;;;;;2.58;2.47;;;;;;;;;;2064651;28;20260;-53
2022/07/13 01:03:11;;;;;;;2.30;2.15;;;;;;;;;;2064731;28;20237;-52
2022/07/13 01:04:11;;;;;;;4.57;4.18;;;;;;;;;;2063717;28;20643;-53
2022/07/13 01:05:12;;;;;;;3.15;2.78;;;;;;;;;;2072856;28;20657;-59
2022/07/13 01:06:12;;;;;;;3.47;2.45;;;;;;;;;;2073887;28;20173;-51
2022/07/13 01:07:13;;;;;;;2.30;2.20;;;;;;;;;;2073682;28;20161;-52
2022/07/13 01:08:13;;;;;;;2.40;2.28;;;;;;;;;;2073090;28;20208;-54
2022/07/13 01:09:13;;;;;;;2.47;2.25;;;;;;;;;;2064795;28;20212;-55
2022/07/13 01:10:14;;;;;;;2.42;2.13;;;;;;;;;;2070264;28;20184;-52
2022/07/13 01:11:14;;;;;;;2.25;2.10;;;;;;;;;;2073508;28;20192;-51
2022/07/13 01:12:15;;;;;;;2.00;1.90;;;;;;;;;;2073688;28;20530;-54
2022/07/13 01:13:16;;;;;;;1.98;1.80;;;;;;;;;;2073284;28;20247;-54
2022/07/13 01:14:16;;;;;;;2.20;2.10;;;;;;;;;;2072225;28;20207;-56
2022/07/13 01:15:17;;;;;;;2.03;1.92;;;;;;;;;;2072667;28;20181;-54
2022/07/13 01:16:17;;;;;;;1.92;1.83;;;;;;;;;;2072888;28;20204;-53
2022/07/13 01:17:18;;;;;;;1.90;1.80;;;;;;;;;;2072887;28;20266;-53
2022/07/13 01:18:18;;;;;;;2.08;1.98;;;;;;;;;;2073060;28;20622;-52
2022/07/13 01:19:20;;;;;;;2.90;2.70;;;;;;;;;;2072592;28;20185;-54
2022/07/13 01:20:20;;;;;;;2.70;2.50;;;;;;;;;;2073150;28;20184;-54
2022/07/13 01:21:21;;;;;;;2.83;2.63;;;;;;;;;;2072462;28;20730;-51
2022/07/13 01:22:24;;;;;;;2.38;2.22;;;;;;;;;;2073370;28;20657;-51
2022/07/13 01:23:24;;;;;;;3.28;2.30;;;;;;;;;;2072949;28;20211;-53
2022/07/13 01:24:25;;;;;;;3.22;2.45;;;;;;;;;;2072206;28;20278;-53
2022/07/13 01:25:25;;;;;;;3.17;2.97;;;;;;;;;;2072930;28;20173;-50
2022/07/13 01:26:26;;;;;;;2.63;2.42;;;;;;;;;;2073698;28;20569;-50
2022/07/13 01:27:26;;;;;;;2.40;2.20;;;;;;;;;;2072957;28;20279;-52
2022/07/13 01:28:27;;;;;;;2.58;2.30;;;;;;;;;;2073165;28;20193;-56
2022/07/13 01:29:27;;;;;;;2.85;2.40;;;;;;;;;;2072801;28;20521;-56
2022/07/13 01:30:28;;;;;;;2.30;2.10;;;;;;;;;;2064821;28;20193;-51
2022/07/13 01:31:34;;;;;;;2.50;2.30;;;;;;;;;;2073074;28;20169;-52
2022/07/13 01:32:45;;;;;;;2.40;2.30;;;;;;;;;;2073552;28;20179;-52
2022/07/13 01:33:45;;;;;;;3.10;2.60;;;;;;;;;;2073437;28;20192;-56
2022/07/13 01:34:47;;;;;;;2.30;2.20;;;;;;;;;;2071882;28;20219;-55
2022/07/13 01:35:48;;;;;;;2.63;2.42;;;;;;;;;;2065034;28;20623;-52
2022/07/13 01:36:48;;;;;;;2.58;2.47;;;;;;;;;;2064977;28;20174;-53
2022/07/13 01:37:48;;;;;;;5.32;2.42;;;;;;;;;;2072847;28;20627;-55
2022/07/13 01:38:49;;;;;;;2.60;2.40;;;;;;;;;;2073524;28;20572;-52
2022/07/13 01:39:49;;;;;;;2.92;2.72;;;;;;;;;;2073335;28;20173;-50
2022/07/13 01:40:49;;;;;;;2.85;2.30;;;;;;;;;;2072825;28;20181;-56
2022/07/13 01:41:50;;;;;;;2.22;2.13;;;;;;;;;;2072990;28;20220;-54
2022/07/13 01:42:51;;;;;;;3.15;2.55;;;;;;;;;;2072984;28;20188;-51
2022/07/13 01:43:52;;;;;;;2.58;2.38;;;;;;;;;;2064460;28;20244;-50
2022/07/13 01:44:54;;;;;;;3.47;2.50;;;;;;;;;;2064434;28;20213;-55
2022/07/13 01:45:56;;;;;;;2.53;2.33;;;;;;;;;;2065005;28;20174;-54
2022/07/13 01:46:57;;;;;;;2.80;2.60;;;;;;;;;;2070855;28;20192;-53
2022/07/13 01:47:57;;;;;;;2.85;2.50;;;;;;;;;;2072646;28;20173;-53
2022/07/13 01:48:59;;;;;;;2.40;2.30;;;;;;;;;;2064740;28;20174;-53
2022/07/13 01:50:00;;;;;;;2.97;2.60;;;;;;;;;;2072556;28;20180;-55
2022/07/13 01:51:00;;;;;;;2.50;2.30;;;;;;;;;;2072820;28;20641;-55
2022/07/13 01:52:00;;;;;;;3.13;2.53;;;;;;;;;;2072894;28;20204;-55
2022/07/13 01:53:01;;;;;;;3.53;3.22;;;;;;;;;;2072625;28;20268;-54
2022/07/13 01:54:02;;;;;;;2.78;2.60;;;;;;;;;;2072058;28;20634;-52
2022/07/13 01:55:06;;;;;;;2.20;2.10;;;;;;;;;;2073263;28;20176;-53
2022/07/13 01:56:07;;;;;;;2.40;2.20;;;;;;;;;;2064794;28;20178;-52
2022/07/13 01:57:07;;;;;;;3.22;2.20;;;;;;;;;;2056508;28;20249;-52
2022/07/13 01:58:07;;;;;;;1.98;1.88;;;;;;;;;;2072587;28;20205;-51
2022/07/13 01:59:08;;;;;;;2.70;2.42;;;;;;;;;;2064642;28;20173;-54
2022/07/13 02:00:13;;;;;;;2.72;2.13;;;;;;;;;;2072371;28;20173;-53
2022/07/13 02:01:14;;;;;;;2.50;2.25;;;;;;;;;;2072758;28;20200;-53
2022/07/13 02:02:17;;;;;;;2.67;2.47;;;;;;;;;;2072727;28;20260;-56
2022/07/13 02:03:17;;;;;;;2.97;2.50;;;;;;;;;;2072770;28;20181;-54
2022/07/13 02:04:17;;;;;;;4.30;2.10;;;;;;;;;;2071922;28;20177;-53
2022/07/13 02:05:18;;;;;;;2.80;2.60;;;;;;;;;;2064599;28;20570;-55
2022/07/13 02:06:18;;;;;;;2.50;2.40;;;;;;;;;;2064612;28;20166;-55
2022/07/13 02:07:18;;;;;;;2.60;2.40;;;;;;;;;;2064069;28;20220;-53
2022/07/13 02:08:19;;;;;;;2.28;2.17;;;;;;;;;;2072698;28;20216;-51
2022/07/13 02:09:20;;;;;;;2.70;2.50;;;;;;;;;;2072598;28;20188;-52
2022/07/13 02:10:21;;;;;;;2.47;2.38;;;;;;;;;;2061021;28;20166;-52
2022/07/13 02:11:21;;;;;;;2.40;2.30;;;;;;;;;;2064472;28;20173;-53
2022/07/13 02:12:22;;;;;;;2.55;2.35;;;;;;;;;;2056666;28;20197;-55
2022/07/13 02:13:22;;;;;;;2.20;2.10;;;;;;;;;;2065125;28;20220;-55
2022/07/13 02:14:22;;;;;;;2.25;2.13;;;;;;;;;;2063830;28;20189;-56
2022/07/13 02:15:24;;;;;;;2.13;2.03;;;;;;;;;;2072719;28;20634;-52
2022/07/13 02:16:24;;;;;;;3.25;2.40;;;;;;;;;;2073063;28;20176;-55
2022/07/13 02:17:26;;;;;;;4.88;2.60;;;;;;;;;;2064789;28;20647;-56
2022/07/13 02:18:26;;;;;;;2.58;2.47;;;;;;;;;;2072640;28;20192;-50
2022/07/13 02:19:27;;;;;;;2.38;2.28;;;;;;;;;;2072523;28;20644;-54
2022/07/13 02:20:27;;;;;;;2.08;1.98;;;;;;;;;;2072713;28;20594;-52
2022/07/13 02:21:28;;;;;;;4.50;2.67;;;;;;;;;;2073294;28;20315;-55
2022/07/13 02:22:39;;;;;;;2.92;2.60;;;;;;;;;;2073540;28;20184;-53
2022/07/13 02:23:39;;;;;;;2.38;2.28;;;;;;;;;;2072828;28;20675;-53
2022/07/13 02:24:40;;;;;;;3.65;2.70;;;;;;;;;;2072148;28;20181;-53
2022/07/13 02:25:40;;;;;;;3.63;2.55;;;;;;;;;;2073482;28;20328;-57
2022/07/13 02:26:40;;;;;;;2.85;2.50;;;;;;;;;;2067006;28;20205;-57
2022/07/13 02:27:42;;;;;;;2.30;2.10;;;;;;;;;;2075082;28;20181;-59
2022/07/13 02:28:43;;;;;;;2.03;1.92;;;;;;;;;;2067406;28;20201;-54
2022/07/13 02:29:44;;;;;;;2.63;2.42;;;;;;;;;;2066674;28;20169;-57
2022/07/13 02:30:45;;;;;;;2.58;2.20;;;;;;;;;;2074218;28;20704;-58
2022/07/13 02:31:47;;;;;;;2.78;2.60;;;;;;;;;;2074610;28;20556;-56
2022/07/13 02:32:47;;;;;;;2.40;2.30;;;;;;;;;;2066288;28;20170;-53
2022/07/13 02:33:47;;;;;;;2.25;1.92;;;;;;;;;;2073674;28;20184;-56
2022/07/13 02:34:48;;;;;;;2.47;2.33;;;;;;;;;;2072458;28;20192;-53
2022/07/13 02:35:48;;;;;;;2.60;2.40;;;;;;;;;;2072322;28;20168;-56
2022/07/13 02:36:49;;;;;;;1.90;1.80;;;;;;;;;;2072822;28;20193;-53
2022/07/13 02:37:49;;;;;;;2.80;2.50;;;;;;;;;;2072597;28;20680;-52
2022/07/13 02:38:49;;;;;;;2.78;2.55;;;;;;;;;;2064354;28;20224;-52
2022/07/13 02:39:53;;;;;;;2.25;2.10;;;;;;;;;;2064656;28;20176;-53
2022/07/13 02:40:53;;;;;;;3.17;2.50;;;;;;;;;;2057024;28;22133;-55
2022/07/13 02:41:53;;;;;;;2.72;2.53;;;;;;;;;;2064725;28;20185;-54
2022/07/13 02:42:54;;;;;;;2.90;2.65;;;;;;;;;;2065118;28;20201;-54
2022/07/13 02:43:54;;;;;;;2.83;2.63;;;;;;;;;;2064856;28;20185;-54
2022/07/13 02:44:54;;;;;;;2.63;2.42;;;;;;;;;;2063671;28;20301;-55
2022/07/13 02:45:55;;;;;;;3.75;2.42;;;;;;;;;;2072475;28;20227;-52
2022/07/13 02:46:55;;;;;;;3.13;2.70;;;;;;;;;;2072494;28;20177;-55
2022/07/13 02:47:56;;;;;;;2.45;2.30;;;;;;;;;;2072668;28;20169;-52
2022/07/13 02:48:56;;;;;;;3.30;2.33;;;;;;;;;;2072605;28;20172;-51
2022/07/13 02:49:56;;;;;;;2.67;2.40;;;;;;;;;;2072409;28;20637;-54
2022/07/13 02:50:57;;;;;;;2.60;2.40;;;;;;;;;;2072148;28;20276;-54
2022/07/13 02:51:57;;;;;;;2.58;2.38;;;;;;;;;;2072811;28;20161;-50
2022/07/13 02:52:58;;;;;;;3.42;1.92;;;;;;;;;;2072385;28;20185;-53
2022/07/13 02:53:58;;;;;;;2.13;2.00;;;;;;;;;;2072359;28;20161;-59
2022/07/13 02:54:58;;;;;;;2.30;2.20;;;;;;;;;;2072139;28;20192;-56
2022/07/13 02:55:59;;;;;;;2.55;2.35;;;;;;;;;;2064509;28;20205;-55
2022/07/13 02:57:00;;;;;;;2.10;2.00;;;;;;;;;;2064175;28;20217;-56
2022/07/13 02:58:01;;;;;;;3.00;2.10;;;;;;;;;;2064220;28;20213;-53
2022/07/13 02:59:01;;;;;;;2.80;2.47;;;;;;;;;;2064372;28;20165;-54
2022/07/13 03:00:01;;;;;;;2.50;2.22;;;;;;;;;;2064164;28;20233;-55
2022/07/13 03:01:04;;;;;;;2.28;2.10;;;;;;;;;;2064166;28;20264;-54
2022/07/13 03:02:04;;;;;;;2.85;2.65;;;;;;;;;;2064370;28;20252;-55
2022/07/13 03:03:05;;;;;;;3.78;2.85;;;;;;;;;;2072107;28;20177;-52
2022/07/13 03:04:08;;;;;;;2.38;2.22;;;;;;;;;;2071500;28;20161;-52
2022/07/13 03:05:10;;;;;;;2.25;2.13;;;;;;;;;;2065593;28;20694;-54
2022/07/13 03:06:10;;;;;;;2.90;2.70;;;;;;;;;;2063769;28;20174;-56
2022/07/13 03:07:11;;;;;;;2.58;2.42;;;;;;;;;;2072160;28;20169;-55
2022/07/13 03:08:11;;;;;;;4.82;2.85;;;;;;;;;;2064406;28;20233;-55
2022/07/13 03:09:12;;;;;;;3.25;2.95;;;;;;;;;;2072442;28;20169;-56
2022/07/13 03:10:13;;;;;;;2.60;2.40;;;;;;;;;;2072225;28;20161;-54
2022/07/13 03:11:14;;;;;;;2.75;2.55;;;;;;;;;;2064393;28;20184;-53
2022/07/13 03:12:16;;;;;;;3.92;2.80;;;;;;;;;;2064242;28;20201;-55
2022/07/13 03:13:16;;;;;;;2.88;2.67;;;;;;;;;;2072490;28;20260;-55
2022/07/13 03:14:19;;;;;;;2.80;2.60;;;;;;;;;;2063352;28;20613;-51
2022/07/13 03:15:19;;;;;;;3.05;2.60;;;;;;;;;;2072059;28;20613;-53
2022/07/13 03:16:21;;;;;;;2.53;2.40;;;;;;;;;;2062073;28;20199;-54
2022/07/13 03:17:21;;;;;;;4.32;3.15;;;;;;;;;;2070418;28;20212;-55
2022/07/13 03:18:22;;;;;;;4.38;2.65;;;;;;;;;;2079758;28;20220;-52
2022/07/13 03:19:23;;;;;;;3.53;2.38;;;;;;;;;;2072491;28;20177;-53
2022/07/13 03:20:23;;;;;;;2.83;2.63;;;;;;;;;;2072240;28;20197;-57
2022/07/13 03:21:24;;;;;;;2.85;2.67;;;;;;;;;;2072285;28;20196;-55
2022/07/13 03:22:24;;;;;;;3.28;2.97;;;;;;;;;;2064162;28;20178;-54
2022/07/13 03:23:25;;;;;;;3.08;2.83;;;;;;;;;;2072248;28;20169;-51
2022/07/13 03:24:27;;;;;;;2.83;2.65;;;;;;;;;;2071347;28;20253;-55
2022/07/13 03:25:28;;;;;;;3.40;2.83;;;;;;;;;;2064340;28;20272;-54
2022/07/13 03:26:29;;;;;;;3.30;3.00;;;;;;;;;;2072244;28;20193;-53
2022/07/13 03:27:30;;;;;;;3.38;2.90;;;;;;;;;;2064236;28;20181;-56
2022/07/13 03:28:30;;;;;;;3.33;3.08;;;;;;;;;;2064149;28;20196;-55
2022/07/13 03:29:32;;;;;;;2.72;2.60;;;;;;;;;;2064404;28;20275;-54
2022/07/13 03:30:32;;;;;;;3.78;3.35;;;;;;;;;;2063121;28;20181;-54
2022/07/13 03:31:33;;;;;;;2.78;2.58;;;;;;;;;;2064323;28;20177;-51
2022/07/13 03:32:33;;;;;;;4.07;3.00;;;;;;;;;;2059451;28;20178;-54
2022/07/13 03:33:34;;;;;;;3.00;2.80;;;;;;;;;;2070404;28;20238;-56
2022/07/13 03:34:34;;;;;;;2.90;2.75;;;;;;;;;;2074788;28;20180;-53
2022/07/13 03:35:35;;;;;;;3.70;2.90;;;;;;;;;;2072221;28;20188;-52
2022/07/13 03:36:36;;;;;;;3.42;3.13;;;;;;;;;;2064123;28;20177;-56
2022/07/13 03:37:38;;;;;;;2.83;2.63;;;;;;;;;;2064302;28;20185;-57
2022/07/13 03:38:38;;;;;;;3.20;3.00;;;;;;;;;;2072191;28;20200;-51
2022/07/13 03:39:39;;;;;;;3.22;3.03;;;;;;;;;;2072664;28;20279;-55
2022/07/13 03:40:39;;;;;;;3.55;3.20;;;;;;;;;;2071860;28;20177;-54
2022/07/13 03:41:40;;;;;;;3.10;2.90;;;;;;;;;;2064279;28;20196;-52
2022/07/13 03:42:40;;;;;;;3.08;2.88;;;;;;;;;;2072322;28;20231;-54
2022/07/13 03:43:41;;;;;;;3.20;2.90;;;;;;;;;;2073539;28;20200;-54
2022/07/13 03:44:42;;;;;;;3.40;3.10;;;;;;;;;;2064439;28;20646;-52
2022/07/13 03:45:43;;;;;;;3.40;3.10;;;;;;;;;;2074035;28;20161;-53
2022/07/13 03:46:43;;;;;;;4.35;3.20;;;;;;;;;;2073898;28;20165;-55
2022/07/13 03:47:44;;;;;;;3.88;3.33;;;;;;;;;;2074141;28;20192;-54
2022/07/13 03:48:44;;;;;;;3.88;3.58;;;;;;;;;;2074019;28;20193;-53
2022/07/13 03:49:45;;;;;;;3.35;3.05;;;;;;;;;;2065537;28;20197;-54
2022/07/13 03:50:45;;;;;;;3.50;3.30;;;;;;;;;;2067872;28;20185;-56
2022/07/13 03:51:46;;;;;;;3.53;3.33;;;;;;;;;;2076200;28;20267;-53
2022/07/13 03:52:47;;;;;;;3.60;3.30;;;;;;;;;;2075914;28;20173;-55
2022/07/13 03:53:49;;;;;;;5.28;4.07;;;;;;;;;;2075282;28;20183;-57
2022/07/13 03:54:51;;;;;;;3.92;3.63;;;;;;;;;;2074003;28;20158;-53
2022/07/13 03:55:52;;;;;;;4.63;3.63;;;;;;;;;;2074850;28;20180;-54
2022/07/13 03:56:53;;;;;;;4.47;3.95;;;;;;;;;;2074829;28;20208;-55
2022/07/13 03:57:53;;;;;;;4.20;3.90;;;;;;;;;;2074211;28;20173;-52
2022/07/13 03:58:55;;;;;;;4.35;4.05;;;;;;;;;;2066350;28;20638;-56
2022/07/13 03:59:56;;;;;;;4.03;3.70;;;;;;;;;;2073839;28;20160;-57
2022/07/13 04:00:56;;;;;;;4.32;3.97;;;;;;;;;;2074441;28;20296;-53
2022/07/13 04:01:57;;;;;;;4.13;3.67;;;;;;;;;;2074682;28;20548;-52
2022/07/13 04:02:58;;;;;;;4.35;4.00;;;;;;;;;;2074496;28;20589;-51
2022/07/13 04:03:59;;;;;;;4.72;4.32;;;;;;;;;;2064888;28;20865;-56
2022/07/13 04:05:00;;;;;;;4.18;3.88;;;;;;;;;;2073579;28;20176;-57
2022/07/13 04:06:02;;;;;;;5.28;4.38;;;;;;;;;;2065675;28;20200;-52
2022/07/13 04:07:03;;;;;;;4.60;4.10;;;;;;;;;;2073720;28;20173;-51
2022/07/13 04:08:05;;;;;;;4.53;4.10;;;;;;;;;;2065566;28;20166;-52
2022/07/13 04:09:05;;;;;;;4.60;4.20;;;;;;;;;;2073980;28;20172;-55
2022/07/13 04:10:07;;;;;;;4.55;4.15;;;;;;;;;;2067523;28;20231;-52
2022/07/13 04:11:07;;;;;;;4.82;4.25;;;;;;;;;;2073843;28;20208;-52
2022/07/13 04:12:08;;;;;;;4.63;4.22;;;;;;;;;;2073475;28;20708;-55
2022/07/13 04:13:08;;;;;;;4.38;4.07;;;;;;;;;;2065576;28;20651;-55
2022/07/13 04:14:08;;;;;;;4.13;3.83;;;;;;;;;;2064875;28;20638;-53
2022/07/13 04:15:09;;;;;;;4.22;3.92;;;;;;;;;;2078163;28;20199;-55
2022/07/13 04:16:09;;;;;;;4.90;3.65;;;;;;;;;;2057385;28;20178;-52
2022/07/13 04:17:12;;;;;;;5.30;3.60;;;;;;;;;;2049991;28;20175;-55
2022/07/13 04:18:12;;;;;;;3.85;3.65;;;;;;;;;;2057315;28;20301;-56
2022/07/13 04:19:12;;;;;;;4.47;4.00;;;;;;;;;;2065665;28;20173;-60
2022/07/13 04:20:13;;;;;;;4.50;4.10;;;;;;;;;;2065686;28;20193;-55
2022/07/13 04:21:16;;;;;;;3.92;3.33;;;;;;;;;;2081195;28;20248;-55
2022/07/13 04:22:18;;;;;;;4.22;3.53;;;;;;;;;;2073386;28;20256;-53
2022/07/13 04:23:18;;;;;;;4.03;3.72;;;;;;;;;;2073632;28;20260;-55
2022/07/13 04:24:21;;;;;;;3.90;3.60;;;;;;;;;;2064329;28;20172;-53
2022/07/13 04:25:22;;;;;;;3.90;3.60;;;;;;;;;;2057586;28;20182;-50
2022/07/13 04:26:23;;;;;;;4.20;3.90;;;;;;;;;;2057387;28;20713;-55
2022/07/13 04:27:23;;;;;;;4.30;3.90;;;;;;;;;;2065520;28;20252;-56
2022/07/13 04:28:24;;;;;;;3.67;3.38;;;;;;;;;;2065302;28;20244;-53
2022/07/13 04:29:25;;;;;;;3.70;3.35;;;;;;;;;;2058221;28;20171;-55
2022/07/13 04:30:25;;;;;;;3.97;3.58;;;;;;;;;;2073567;28;20599;-56
2022/07/13 04:31:26;;;;;;;3.50;3.30;;;;;;;;;;2073487;28;20293;-51
2022/07/13 04:32:26;;;;;;;3.50;3.30;;;;;;;;;;2065367;28;20169;-52
2022/07/13 04:33:27;;;;;;;4.22;3.30;;;;;;;;;;2065360;28;20181;-55
2022/07/13 04:34:28;;;;;;;3.80;3.50;;;;;;;;;;2063061;28;20170;-58
2022/07/13 04:35:28;;;;;;;5.97;3.55;;;;;;;;;;2058114;28;20624;-53
2022/07/13 04:36:29;;;;;;;9.13;3.88;;;;;;;;;;2073324;28;20272;-55
2022/07/13 04:37:29;;;;;;;4.00;3.20;;;;;;;;;;2073517;28;20184;-51
2022/07/13 04:38:30;;;;;;;4.45;3.90;;;;;;;;;;2073485;28;20551;-55
2022/07/13 04:39:31;;;;;;;4.00;3.38;;;;;;;;;;2073517;28;20211;-54
2022/07/13 04:40:31;;;;;;;5.28;3.90;;;;;;;;;;2073989;28;20215;-54
2022/07/13 04:41:32;;;;;;;5.13;3.58;;;;;;;;;;2073094;28;20628;-56
2022/07/13 04:42:33;;;;;;;3.92;3.58;;;;;;;;;;2073673;28;20177;-51
2022/07/13 04:43:33;;;;;;;4.18;3.78;;;;;;;;;;2073402;28;20266;-50
2022/07/13 04:44:33;;;;;;;4.25;3.40;;;;;;;;;;2072321;28;20634;-54
2022/07/13 04:45:34;;;;;;;4.07;3.40;;;;;;;;;;2073277;28;20181;-57
2022/07/13 04:46:34;;;;;;;4.10;3.75;;;;;;;;;;2065333;28;20693;-55
2022/07/13 04:47:35;;;;;;;6.55;3.85;;;;;;;;;;2065216;28;20200;-52
2022/07/13 04:48:36;;;;;;;4.03;3.60;;;;;;;;;;2073359;28;20197;-53
2022/07/13 04:49:36;;;;;;;3.90;3.50;;;;;;;;;;2073071;28;20169;-54
2022/07/13 04:50:37;;;;;;;4.88;3.85;;;;;;;;;;2073059;28;20264;-55
2022/07/13 04:51:38;;;;;;;3.63;3.33;;;;;;;;;;2065163;28;20280;-54
2022/07/13 04:52:40;;;;;;;3.72;3.40;;;;;;;;;;2065638;28;20564;-57
2022/07/13 04:53:41;;;;;;;6.25;3.65;;;;;;;;;;2063235;28;20182;-54
2022/07/13 04:54:45;;;;;;;5.85;3.22;;;;;;;;;;2070695;28;20172;-54
2022/07/13 04:55:45;;;;;;;4.57;3.40;;;;;;;;;;2061469;28;20646;-54
2022/07/13 04:56:46;;;;;;;3.78;3.20;;;;;;;;;;2064479;28;20170;-54
2022/07/13 04:57:46;;;;;;;4.13;3.33;;;;;;;;;;2076043;28;20180;-53
2022/07/13 04:58:48;;;;;;;3.50;3.30;;;;;;;;;;2064974;28;20209;-51
2022/07/13 04:59:48;;;;;;;3.67;3.35;;;;;;;;;;2073204;28;20590;-53
2022/07/13 05:00:49;;;;;;;3.78;3.15;;;;;;;;;;2073303;28;20177;-57
2022/07/13 05:01:49;;;;;;;3.22;2.92;;;;;;;;;;2079447;28;20645;-57
2022/07/13 05:02:50;;;;;;;3.90;3.10;;;;;;;;;;2081477;28;20242;-53
2022/07/13 05:03:50;;;;;;;4.30;3.15;;;;;;;;;;2081560;28;20703;-52
2022/07/13 05:04:50;;;;;;;4.03;3.13;;;;;;;;;;2080441;28;20603;-50
2022/07/13 05:05:51;;;;;;;3.05;2.85;;;;;;;;;;2081762;28;20188;-54
2022/07/13 05:06:51;;;;;;;4.53;3.00;;;;;;;;;;2076584;28;20556;-55
2022/07/13 05:07:52;;;;;;;3.13;2.70;;;;;;;;;;2072987;28;20586;-52
2022/07/13 05:08:53;;;;;;;6.03;3.10;;;;;;;;;;2073465;28;20235;-53
2022/07/13 05:09:53;;;;;;;4.38;2.88;;;;;;;;;;2065229;28;20184;-51
2022/07/13 05:10:53;;;;;;;3.35;3.15;;;;;;;;;;2081605;28;20196;-54
2022/07/13 05:11:54;;;;;;;3.75;2.88;;;;;;;;;;2081766;28;20263;-55
2022/07/13 05:12:55;;;;;;;3.13;2.92;;;;;;;;;;2065169;28;20552;-55
2022/07/13 05:13:56;;;;;;;3.28;3.08;;;;;;;;;;2076988;28;20552;-56
2022/07/13 05:14:57;;;;;;;4.35;2.53;;;;;;;;;;2072538;28;20304;-53
2022/07/13 05:15:58;;;;;;;5.47;3.08;;;;;;;;;;2071669;28;20169;-55
2022/07/13 05:16:58;;;;;;;3.80;2.58;;;;;;;;;;2064879;28;20177;-53
2022/07/13 05:17:58;;;;;;;3.38;3.17;;;;;;;;;;2065226;28;20173;-51
2022/07/13 05:18:59;;;;;;;2.88;2.55;;;;;;;;;;2064481;28;20181;-50
2022/07/13 05:20:06;;;;;;;3.22;2.92;;;;;;;;;;2071664;28;20173;-52
2022/07/13 05:21:10;;;;;;;4.15;2.88;;;;;;;;;;2077211;28;20229;-52
2022/07/13 05:22:11;;;;;;;3.17;2.60;;;;;;;;;;2076597;28;20181;-53
2022/07/13 05:23:11;;;;;;;6.18;3.92;;;;;;;;;;2072952;28;20661;-53
2022/07/13 05:24:11;;;;;;;3.67;2.55;;;;;;;;;;2064192;28;20777;-56
2022/07/13 05:25:12;;;;;;;2.78;2.58;;;;;;;;;;2069326;28;20523;-55
2022/07/13 05:26:13;;;;;;;2.78;2.58;;;;;;;;;;2081432;28;20215;-54
2022/07/13 05:27:14;;;;;;;3.03;2.78;;;;;;;;;;2081297;28;20606;-52
2022/07/13 05:28:15;;;;;;;3.50;2.92;;;;;;;;;;2081371;28;20260;-53
2022/07/13 05:29:15;;;;;;;5.63;2.60;;;;;;;;;;2082002;28;20177;-54
2022/07/13 05:30:16;;;;;;;2.78;2.67;;;;;;;;;;2081335;28;20200;-55
2022/07/13 05:31:16;;;;;;;3.45;3.05;;;;;;;;;;2072644;28;20271;-53
2022/07/13 05:32:17;;;;;;;3.80;3.50;;;;;;;;;;2062748;28;20173;-52
2022/07/13 05:33:20;;;;;;;3.65;3.17;;;;;;;;;;2064841;28;20240;-56
2022/07/13 05:34:20;;;;;;;12.05;4.45;;;;;;;;;;2066147;28;20755;-54
2022/07/13 05:35:22;;;;;;;5.75;3.78;;;;;;;;;;2064918;28;20658;-53
2022/07/13 05:36:22;;;;;;;3.47;3.05;;;;;;;;;;2063449;28;20195;-57
2022/07/13 05:37:23;;;;;;;2.92;2.72;;;;;;;;;;2073158;28;20161;-51
2022/07/13 05:38:23;;;;;;;4.90;2.70;;;;;;;;;;2072972;28;20686;-52
2022/07/13 05:39:26;;;;;;;9.68;8.55;;;;;;;;;;2065132;28;20178;-55
2022/07/13 05:40:27;;;;;;;3.20;2.90;;;;;;;;;;2064981;28;20173;-55
2022/07/13 05:41:28;;;;;;;8.30;5.57;;;;;;;;;;2064252;28;20245;-52
2022/07/13 05:42:29;;;;;;;5.70;4.70;;;;;;;;;;2073142;28;20185;-53
2022/07/13 05:43:29;;;;;;;3.60;3.40;;;;;;;;;;2076809;28;20246;-52
2022/07/13 05:44:29;;;;;;;3.15;2.95;;;;;;;;;;2071964;28;20181;-54
2022/07/13 05:45:31;;;;;;;5.82;2.90;;;;;;;;;;2072840;28;20518;-53
2022/07/13 05:46:31;;;;;;;7.35;3.30;;;;;;;;;;2072391;28;20188;-50
2022/07/13 05:47:32;;;;;;;4.55;3.35;;;;;;;;;;2072955;28;20203;-54
2022/07/13 05:48:34;;;;;;;3.45;3.00;;;;;;;;;;2064697;28;20185;-50
2022/07/13 05:49:34;;;;;;;2.92;2.70;;;;;;;;;;2056754;28;20178;-52
2022/07/13 05:50:35;;;;;;;7.90;4.15;;;;;;;;;;2065926;28;20173;-52
2022/07/13 05:51:35;;;;;;;2.90;2.70;;;;;;;;;;2064732;28;20223;-55
2022/07/13 05:52:38;;;;;;;3.35;2.50;;;;;;;;;;2064351;28;20208;-52
2022/07/13 05:53:39;;;;;;;3.53;2.50;;;;;;;;;;2070896;28;20180;-56
2022/07/13 05:54:39;;;;;;;3.08;2.63;;;;;;;;;;2063563;28;20261;-48
2022/07/13 05:55:39;;;;;;;4.65;3.20;;;;;;;;;;2064724;28;20181;-52
2022/07/13 05:56:40;;;;;;;6.38;3.00;;;;;;;;;;2064682;28;20645;-53
2022/07/13 05:57:40;;;;;;;3.13;2.90;;;;;;;;;;2072876;28;20554;-57
2022/07/13 05:58:41;;;;;;;5.53;3.08;;;;;;;;;;2073108;28;20618;-54
2022/07/13 05:59:41;;;;;;;3.47;2.92;;;;;;;;;;2073396;28;20165;-57
2022/07/13 06:00:41;;;;;;;10.60;4.65;;;;;;;;;;2073350;28;20391;-54
2022/07/13 06:01:41;;;;;;;8.07;3.20;;;;;;;;;;2073342;28;20205;-56
2022/07/13 06:02:42;;;;;;;6.05;3.42;;;;;;;;;;2073187;28;20588;-57
2022/07/13 06:03:42;;;;;;;4.50;3.30;;;;;;;;;;2073549;28;20650;-56
2022/07/13 06:04:43;;;;;;;4.93;2.65;;;;;;;;;;2072506;28;20161;-56